sensor_id;sensor_type;location;lat;lon;timestamp;P1;durP1;ratioP1;P2;durP2;ratioP2
15748;SDS011;7976;52.526;13.326;2024-02-15T00:01:29;12.35;;;5.35;;
15748;SDS011;7976;52.526;13.326;2024-02-15T00:04:00;11.88;;;5.50;;
15748;SDS011;7976;52.526;13.326;2024-02-15T00:06:27;13.55;;;5.05;;
15748;SDS011;7976;52.526;13.326;2024-02-15T00:08:54;11.00;;;4.80;;
15748;SDS011;7976;52.526;13.326;2024-02-15T00:11:21;14.73;;;5.38;;
15748;SDS011;7976;52.526;13.326;2024-02-15T00:13:48;12.90;;;5.68;;
15748;SDS011;7976;52.526;13.326;2024-02-15T00:16:14;12.98;;;5.40;;
15748;SDS011;7976;52.526;13.326;2024-02-15T00:18:42;14.07;;;5.75;;
15748;SDS011;7976;52.526;13.326;2024-02-15T00:21:11;15.02;;;5.65;;
15748;SDS011;7976;52.526;13.326;2024-02-15T00:23:38;15.70;;;5.97;;
15748;SDS011;7976;52.526;13.326;2024-02-15T00:26:07;12.35;;;5.63;;
15748;SDS011;7976;52.526;13.326;2024-02-15T00:28:34;11.75;;;5.53;;
15748;SDS011;7976;52.526;13.326;2024-02-15T00:31:01;13.57;;;5.22;;
15748;SDS011;7976;52.526;13.326;2024-02-15T00:33:28;13.30;;;5.55;;
15748;SDS011;7976;52.526;13.326;2024-02-15T00:35:56;12.95;;;5.43;;
15748;SDS011;7976;52.526;13.326;2024-02-15T00:38:24;12.27;;;5.60;;
15748;SDS011;7976;52.526;13.326;2024-02-15T00:40:51;12.65;;;5.82;;
15748;SDS011;7976;52.526;13.326;2024-02-15T00:43:19;12.60;;;5.63;;
15748;SDS011;7976;52.526;13.326;2024-02-15T00:45:46;13.25;;;5.80;;
15748;SDS011;7976;52.526;13.326;2024-02-15T00:48:13;15.15;;;6.05;;
15748;SDS011;7976;52.526;13.326;2024-02-15T00:50:39;12.88;;;5.45;;
15748;SDS011;7976;52.526;13.326;2024-02-15T00:53:10;16.00;;;5.75;;
15748;SDS011;7976;52.526;13.326;2024-02-15T00:55:40;12.90;;;5.88;;
15748;SDS011;7976;52.526;13.326;2024-02-15T00:58:07;12.18;;;5.68;;
15748;SDS011;7976;52.526;13.326;2024-02-15T01:00:34;13.80;;;5.60;;
15748;SDS011;7976;52.526;13.326;2024-02-15T01:03:02;14.38;;;6.07;;
15748;SDS011;7976;52.526;13.326;2024-02-15T01:05:30;14.25;;;6.50;;
15748;SDS011;7976;52.526;13.326;2024-02-15T01:07:56;12.82;;;6.00;;
15748;SDS011;7976;52.526;13.326;2024-02-15T01:10:23;15.43;;;5.90;;
15748;SDS011;7976;52.526;13.326;2024-02-15T01:12:53;13.98;;;5.70;;
15748;SDS011;7976;52.526;13.326;2024-02-15T01:15:20;16.05;;;6.55;;
15748;SDS011;7976;52.526;13.326;2024-02-15T01:17:47;15.75;;;6.45;;
15748;SDS011;7976;52.526;13.326;2024-02-15T01:20:15;15.07;;;6.20;;
15748;SDS011;7976;52.526;13.326;2024-02-15T01:22:42;13.77;;;5.80;;
15748;SDS011;7976;52.526;13.326;2024-02-15T01:25:09;13.38;;;6.13;;
15748;SDS011;7976;52.526;13.326;2024-02-15T01:27:36;14.60;;;6.45;;
15748;SDS011;7976;52.526;13.326;2024-02-15T01:30:06;15.38;;;6.30;;
15748;SDS011;7976;52.526;13.326;2024-02-15T01:32:36;12.77;;;6.13;;
15748;SDS011;7976;52.526;13.326;2024-02-15T01:35:06;14.32;;;6.32;;
15748;SDS011;7976;52.526;13.326;2024-02-15T01:37:35;13.75;;;6.35;;
15748;SDS011;7976;52.526;13.326;2024-02-15T01:40:04;14.52;;;6.35;;
15748;SDS011;7976;52.526;13.326;2024-02-15T01:42:32;13.20;;;6.40;;
15748;SDS011;7976;52.526;13.326;2024-02-15T01:45:01;12.80;;;5.85;;
15748;SDS011;7976;52.526;13.326;2024-02-15T01:47:30;12.63;;;6.40;;
15748;SDS011;7976;52.526;13.326;2024-02-15T01:49:58;14.15;;;5.88;;
15748;SDS011;7976;52.526;13.326;2024-02-15T01:52:28;17.17;;;6.93;;
15748;SDS011;7976;52.526;13.326;2024-02-15T01:54:56;16.42;;;7.13;;
15748;SDS011;7976;52.526;13.326;2024-02-15T01:57:27;13.60;;;6.28;;
15748;SDS011;7976;52.526;13.326;2024-02-15T01:59:55;14.77;;;6.68;;
15748;SDS011;7976;52.526;13.326;2024-02-15T02:02:22;16.70;;;7.25;;
15748;SDS011;7976;52.526;13.326;2024-02-15T02:05:00;14.50;;;6.28;;
15748;SDS011;7976;52.526;13.326;2024-02-15T02:07:28;15.45;;;6.75;;
15748;SDS011;7976;52.526;13.326;2024-02-15T02:09:55;15.23;;;6.72;;
15748;SDS011;7976;52.526;13.326;2024-02-15T02:12:22;15.98;;;7.03;;
15748;SDS011;7976;52.526;13.326;2024-02-15T02:14:54;19.15;;;7.88;;
15748;SDS011;7976;52.526;13.326;2024-02-15T02:17:21;15.80;;;7.32;;
15748;SDS011;7976;52.526;13.326;2024-02-15T02:19:52;16.48;;;7.60;;
15748;SDS011;7976;52.526;13.326;2024-02-15T02:22:19;16.60;;;8.05;;
15748;SDS011;7976;52.526;13.326;2024-02-15T02:24:55;17.83;;;8.40;;
15748;SDS011;7976;52.526;13.326;2024-02-15T02:27:28;20.35;;;8.13;;
15748;SDS011;7976;52.526;13.326;2024-02-15T02:29:56;18.70;;;8.05;;
15748;SDS011;7976;52.526;13.326;2024-02-15T02:32:24;20.45;;;8.60;;
15748;SDS011;7976;52.526;13.326;2024-02-15T02:34:51;19.77;;;8.30;;
15748;SDS011;7976;52.526;13.326;2024-02-15T02:37:22;17.90;;;7.70;;
15748;SDS011;7976;52.526;13.326;2024-02-15T02:39:49;17.13;;;8.02;;
15748;SDS011;7976;52.526;13.326;2024-02-15T02:42:20;19.23;;;7.57;;
15748;SDS011;7976;52.526;13.326;2024-02-15T02:44:48;17.60;;;7.85;;
15748;SDS011;7976;52.526;13.326;2024-02-15T02:47:15;16.85;;;7.95;;
15748;SDS011;7976;52.526;13.326;2024-02-15T02:49:42;20.08;;;8.32;;
15748;SDS011;7976;52.526;13.326;2024-02-15T02:52:11;19.27;;;8.40;;
15748;SDS011;7976;52.526;13.326;2024-02-15T02:54:38;20.92;;;8.68;;
15748;SDS011;7976;52.526;13.326;2024-02-15T02:57:09;18.83;;;7.47;;
15748;SDS011;7976;52.526;13.326;2024-02-15T02:59:37;17.77;;;8.20;;
15748;SDS011;7976;52.526;13.326;2024-02-15T03:02:05;19.90;;;8.00;;
15748;SDS011;7976;52.526;13.326;2024-02-15T03:04:33;17.35;;;7.70;;
15748;SDS011;7976;52.526;13.326;2024-02-15T03:07:00;21.33;;;8.48;;
15748;SDS011;7976;52.526;13.326;2024-02-15T03:09:29;18.70;;;8.18;;
15748;SDS011;7976;52.526;13.326;2024-02-15T03:11:56;20.77;;;8.50;;
15748;SDS011;7976;52.526;13.326;2024-02-15T03:14:26;19.70;;;8.48;;
15748;SDS011;7976;52.526;13.326;2024-02-15T03:16:57;17.58;;;7.85;;
15748;SDS011;7976;52.526;13.326;2024-02-15T03:19:23;18.35;;;8.25;;
15748;SDS011;7976;52.526;13.326;2024-02-15T03:21:54;19.15;;;8.13;;
15748;SDS011;7976;52.526;13.326;2024-02-15T03:24:24;19.58;;;7.97;;
15748;SDS011;7976;52.526;13.326;2024-02-15T03:26:51;22.23;;;9.18;;
15748;SDS011;7976;52.526;13.326;2024-02-15T03:29:20;18.13;;;7.50;;
15748;SDS011;7976;52.526;13.326;2024-02-15T03:31:50;19.33;;;8.18;;
15748;SDS011;7976;52.526;13.326;2024-02-15T03:34:22;18.35;;;8.13;;
15748;SDS011;7976;52.526;13.326;2024-02-15T03:36:49;19.02;;;7.80;;
15748;SDS011;7976;52.526;13.326;2024-02-15T03:39:18;15.93;;;7.22;;
15748;SDS011;7976;52.526;13.326;2024-02-15T03:41:48;16.60;;;7.55;;
15748;SDS011;7976;52.526;13.326;2024-02-15T03:44:15;20.67;;;7.45;;
15748;SDS011;7976;52.526;13.326;2024-02-15T03:46:44;18.60;;;7.70;;
15748;SDS011;7976;52.526;13.326;2024-02-15T03:49:16;19.10;;;7.72;;
15748;SDS011;7976;52.526;13.326;2024-02-15T03:51:48;18.92;;;7.82;;
15748;SDS011;7976;52.526;13.326;2024-02-15T03:54:15;17.10;;;7.30;;
15748;SDS011;7976;52.526;13.326;2024-02-15T03:56:46;17.42;;;8.18;;
15748;SDS011;7976;52.526;13.326;2024-02-15T03:59:16;17.98;;;7.90;;
15748;SDS011;7976;52.526;13.326;2024-02-15T04:01:44;19.85;;;8.23;;
15748;SDS011;7976;52.526;13.326;2024-02-15T04:04:12;18.40;;;7.97;;
15748;SDS011;7976;52.526;13.326;2024-02-15T04:06:39;18.02;;;7.57;;
15748;SDS011;7976;52.526;13.326;2024-02-15T04:09:09;18.40;;;8.18;;
15748;SDS011;7976;52.526;13.326;2024-02-15T04:11:36;18.10;;;7.18;;
15748;SDS011;7976;52.526;13.326;2024-02-15T04:14:06;19.42;;;7.97;;
15748;SDS011;7976;52.526;13.326;2024-02-15T04:16:33;18.33;;;7.95;;
15748;SDS011;7976;52.526;13.326;2024-02-15T04:19:01;18.40;;;8.13;;
15748;SDS011;7976;52.526;13.326;2024-02-15T04:21:28;21.08;;;8.18;;
15748;SDS011;7976;52.526;13.326;2024-02-15T04:23:56;16.50;;;7.53;;
15748;SDS011;7976;52.526;13.326;2024-02-15T04:26:24;19.92;;;9.05;;
15748;SDS011;7976;52.526;13.326;2024-02-15T04:28:52;18.42;;;8.57;;
15748;SDS011;7976;52.526;13.326;2024-02-15T04:31:19;19.85;;;8.45;;
15748;SDS011;7976;52.526;13.326;2024-02-15T04:33:52;19.45;;;8.43;;
15748;SDS011;7976;52.526;13.326;2024-02-15T04:36:19;19.88;;;8.18;;
15748;SDS011;7976;52.526;13.326;2024-02-15T04:38:48;20.33;;;8.50;;
15748;SDS011;7976;52.526;13.326;2024-02-15T04:41:16;17.92;;;7.78;;
15748;SDS011;7976;52.526;13.326;2024-02-15T04:43:49;20.67;;;8.70;;
15748;SDS011;7976;52.526;13.326;2024-02-15T04:46:17;17.50;;;7.78;;
15748;SDS011;7976;52.526;13.326;2024-02-15T04:48:46;19.70;;;8.00;;
15748;SDS011;7976;52.526;13.326;2024-02-15T04:51:14;20.58;;;8.40;;
15748;SDS011;7976;52.526;13.326;2024-02-15T04:53:46;19.15;;;8.32;;
15748;SDS011;7976;52.526;13.326;2024-02-15T04:56:13;18.98;;;8.63;;
15748;SDS011;7976;52.526;13.326;2024-02-15T04:58:41;17.95;;;7.95;;
15748;SDS011;7976;52.526;13.326;2024-02-15T05:01:13;21.23;;;7.78;;
15748;SDS011;7976;52.526;13.326;2024-02-15T05:03:42;19.10;;;8.40;;
15748;SDS011;7976;52.526;13.326;2024-02-15T05:06:09;21.80;;;8.60;;
15748;SDS011;7976;52.526;13.326;2024-02-15T05:08:38;18.95;;;8.10;;
15748;SDS011;7976;52.526;13.326;2024-02-15T05:11:07;20.85;;;7.90;;
15748;SDS011;7976;52.526;13.326;2024-02-15T05:13:40;18.90;;;7.70;;
15748;SDS011;7976;52.526;13.326;2024-02-15T05:16:07;21.67;;;8.20;;
15748;SDS011;7976;52.526;13.326;2024-02-15T05:18:35;20.83;;;8.82;;
15748;SDS011;7976;52.526;13.326;2024-02-15T05:21:03;20.83;;;8.45;;
15748;SDS011;7976;52.526;13.326;2024-02-15T05:23:34;18.42;;;7.95;;
15748;SDS011;7976;52.526;13.326;2024-02-15T05:26:01;20.73;;;8.02;;
15748;SDS011;7976;52.526;13.326;2024-02-15T05:28:29;20.17;;;8.40;;
15748;SDS011;7976;52.526;13.326;2024-02-15T05:33:43;20.05;;;8.02;;
15748;SDS011;7976;52.526;13.326;2024-02-15T05:36:12;21.58;;;8.13;;
15748;SDS011;7976;52.526;13.326;2024-02-15T05:38:40;18.13;;;7.85;;
15748;SDS011;7976;52.526;13.326;2024-02-15T05:41:10;17.10;;;7.05;;
15748;SDS011;7976;52.526;13.326;2024-02-15T05:43:38;19.67;;;7.68;;
15748;SDS011;7976;52.526;13.326;2024-02-15T05:46:06;19.77;;;7.75;;
15748;SDS011;7976;52.526;13.326;2024-02-15T05:48:34;20.02;;;8.82;;
15748;SDS011;7976;52.526;13.326;2024-02-15T05:51:04;18.60;;;7.47;;
15748;SDS011;7976;52.526;13.326;2024-02-15T05:53:32;18.30;;;7.72;;
15748;SDS011;7976;52.526;13.326;2024-02-15T05:56:01;18.58;;;7.20;;
15748;SDS011;7976;52.526;13.326;2024-02-15T05:58:29;17.52;;;7.45;;
15748;SDS011;7976;52.526;13.326;2024-02-15T06:00:58;18.27;;;7.32;;
15748;SDS011;7976;52.526;13.326;2024-02-15T06:03:27;18.63;;;7.70;;
15748;SDS011;7976;52.526;13.326;2024-02-15T06:05:54;16.48;;;7.38;;
15748;SDS011;7976;52.526;13.326;2024-02-15T06:08:24;17.27;;;7.15;;
15748;SDS011;7976;52.526;13.326;2024-02-15T06:10:52;17.85;;;7.68;;
15748;SDS011;7976;52.526;13.326;2024-02-15T06:13:19;21.40;;;7.30;;
15748;SDS011;7976;52.526;13.326;2024-02-15T06:15:46;22.17;;;7.63;;
15748;SDS011;7976;52.526;13.326;2024-02-15T06:18:17;18.30;;;6.72;;
15748;SDS011;7976;52.526;13.326;2024-02-15T06:20:46;17.85;;;7.32;;
15748;SDS011;7976;52.526;13.326;2024-02-15T06:23:15;20.60;;;8.68;;
15748;SDS011;7976;52.526;13.326;2024-02-15T06:25:43;17.80;;;6.85;;
15748;SDS011;7976;52.526;13.326;2024-02-15T06:28:12;18.15;;;7.63;;
15748;SDS011;7976;52.526;13.326;2024-02-15T06:31:00;21.63;;;8.02;;
15748;SDS011;7976;52.526;13.326;2024-02-15T06:33:44;18.25;;;7.60;;
15748;SDS011;7976;52.526;13.326;2024-02-15T06:36:29;19.17;;;7.72;;
15748;SDS011;7976;52.526;13.326;2024-02-15T06:39:14;18.27;;;7.80;;
15748;SDS011;7976;52.526;13.326;2024-02-15T06:42:00;19.55;;;7.82;;
15748;SDS011;7976;52.526;13.326;2024-02-15T06:44:28;19.83;;;8.02;;
15748;SDS011;7976;52.526;13.326;2024-02-15T06:46:54;19.20;;;7.93;;
15748;SDS011;7976;52.526;13.326;2024-02-15T06:49:22;19.92;;;7.60;;
15748;SDS011;7976;52.526;13.326;2024-02-15T06:51:52;18.17;;;7.78;;
15748;SDS011;7976;52.526;13.326;2024-02-15T06:54:19;17.67;;;7.38;;
15748;SDS011;7976;52.526;13.326;2024-02-15T06:56:47;21.58;;;8.40;;
15748;SDS011;7976;52.526;13.326;2024-02-15T06:59:18;24.10;;;8.48;;
15748;SDS011;7976;52.526;13.326;2024-02-15T07:01:47;20.83;;;7.95;;
15748;SDS011;7976;52.526;13.326;2024-02-15T07:04:14;19.92;;;8.25;;
15748;SDS011;7976;52.526;13.326;2024-02-15T07:06:41;19.08;;;8.00;;
15748;SDS011;7976;52.526;13.326;2024-02-15T07:09:11;18.95;;;7.78;;
15748;SDS011;7976;52.526;13.326;2024-02-15T07:11:39;16.85;;;6.97;;
15748;SDS011;7976;52.526;13.326;2024-02-15T07:14:06;23.77;;;8.05;;
15748;SDS011;7976;52.526;13.326;2024-02-15T07:16:35;23.10;;;7.97;;
15748;SDS011;7976;52.526;13.326;2024-02-15T07:19:03;16.98;;;6.50;;
15748;SDS011;7976;52.526;13.326;2024-02-15T07:21:30;17.95;;;7.45;;
15748;SDS011;7976;52.526;13.326;2024-02-15T07:23:57;20.90;;;7.75;;
15748;SDS011;7976;52.526;13.326;2024-02-15T07:26:25;16.92;;;6.88;;
15748;SDS011;7976;52.526;13.326;2024-02-15T07:28:52;18.23;;;7.15;;
15748;SDS011;7976;52.526;13.326;2024-02-15T07:31:21;17.70;;;7.07;;
15748;SDS011;7976;52.526;13.326;2024-02-15T07:33:50;15.95;;;6.53;;
15748;SDS011;7976;52.526;13.326;2024-02-15T07:36:18;22.08;;;7.80;;
15748;SDS011;7976;52.526;13.326;2024-02-15T07:38:46;16.95;;;7.40;;
15748;SDS011;7976;52.526;13.326;2024-02-15T07:41:14;18.88;;;7.13;;
15748;SDS011;7976;52.526;13.326;2024-02-15T07:43:43;17.77;;;7.10;;
15748;SDS011;7976;52.526;13.326;2024-02-15T07:46:11;18.83;;;7.75;;
15748;SDS011;7976;52.526;13.326;2024-02-15T07:48:41;17.75;;;7.38;;
15748;SDS011;7976;52.526;13.326;2024-02-15T07:51:12;20.88;;;9.43;;
15748;SDS011;7976;52.526;13.326;2024-02-15T07:53:40;14.82;;;6.68;;
15748;SDS011;7976;52.526;13.326;2024-02-15T07:56:07;19.70;;;8.02;;
15748;SDS011;7976;52.526;13.326;2024-02-15T07:58:37;17.98;;;7.47;;
15748;SDS011;7976;52.526;13.326;2024-02-15T08:01:06;17.33;;;7.00;;
15748;SDS011;7976;52.526;13.326;2024-02-15T08:03:33;16.60;;;6.93;;
15748;SDS011;7976;52.526;13.326;2024-02-15T08:06:00;16.40;;;7.15;;
15748;SDS011;7976;52.526;13.326;2024-02-15T08:08:34;14.88;;;6.32;;
15748;SDS011;7976;52.526;13.326;2024-02-15T08:11:01;21.13;;;7.07;;
15748;SDS011;7976;52.526;13.326;2024-02-15T08:13:28;18.38;;;7.43;;
15748;SDS011;7976;52.526;13.326;2024-02-15T08:15:55;14.93;;;6.38;;
15748;SDS011;7976;52.526;13.326;2024-02-15T08:18:22;18.73;;;7.78;;
15748;SDS011;7976;52.526;13.326;2024-02-15T08:20:49;16.20;;;7.10;;
15748;SDS011;7976;52.526;13.326;2024-02-15T08:23:17;16.88;;;7.05;;
15748;SDS011;7976;52.526;13.326;2024-02-15T08:25:45;15.52;;;6.85;;
15748;SDS011;7976;52.526;13.326;2024-02-15T08:28:12;15.88;;;6.65;;
15748;SDS011;7976;52.526;13.326;2024-02-15T08:30:40;14.82;;;6.57;;
15748;SDS011;7976;52.526;13.326;2024-02-15T08:33:07;16.10;;;6.45;;
15748;SDS011;7976;52.526;13.326;2024-02-15T08:35:36;16.27;;;6.05;;
15748;SDS011;7976;52.526;13.326;2024-02-15T08:38:05;14.82;;;5.60;;
15748;SDS011;7976;52.526;13.326;2024-02-15T08:40:32;16.65;;;6.45;;
15748;SDS011;7976;52.526;13.326;2024-02-15T08:43:01;16.95;;;6.32;;
15748;SDS011;7976;52.526;13.326;2024-02-15T08:45:28;14.60;;;6.13;;
15748;SDS011;7976;52.526;13.326;2024-02-15T08:47:55;13.75;;;5.95;;
15748;SDS011;7976;52.526;13.326;2024-02-15T08:50:22;15.63;;;6.72;;
15748;SDS011;7976;52.526;13.326;2024-02-15T08:52:49;14.90;;;6.60;;
15748;SDS011;7976;52.526;13.326;2024-02-15T08:55:18;15.60;;;7.28;;
15748;SDS011;7976;52.526;13.326;2024-02-15T08:57:49;15.95;;;6.65;;
15748;SDS011;7976;52.526;13.326;2024-02-15T09:00:29;16.75;;;6.65;;
15748;SDS011;7976;52.526;13.326;2024-02-15T09:02:56;15.05;;;6.53;;
15748;SDS011;7976;52.526;13.326;2024-02-15T09:05:23;12.63;;;5.57;;
15748;SDS011;7976;52.526;13.326;2024-02-15T09:07:50;17.00;;;8.15;;
15748;SDS011;7976;52.526;13.326;2024-02-15T09:10:17;15.13;;;6.75;;
15748;SDS011;7976;52.526;13.326;2024-02-15T09:12:47;13.82;;;5.82;;
15748;SDS011;7976;52.526;13.326;2024-02-15T09:15:15;14.57;;;6.13;;
15748;SDS011;7976;52.526;13.326;2024-02-15T09:17:45;13.70;;;6.22;;
15748;SDS011;7976;52.526;13.326;2024-02-15T09:20:12;13.23;;;5.82;;
15748;SDS011;7976;52.526;13.326;2024-02-15T09:22:43;13.43;;;5.70;;
15748;SDS011;7976;52.526;13.326;2024-02-15T09:25:14;12.40;;;5.10;;
15748;SDS011;7976;52.526;13.326;2024-02-15T09:27:42;14.68;;;5.80;;
15748;SDS011;7976;52.526;13.326;2024-02-15T09:30:11;15.73;;;5.88;;
15748;SDS011;7976;52.526;13.326;2024-02-15T09:32:40;15.35;;;5.85;;
15748;SDS011;7976;52.526;13.326;2024-02-15T09:35:10;13.40;;;5.20;;
15748;SDS011;7976;52.526;13.326;2024-02-15T09:37:42;10.93;;;4.75;;
15748;SDS011;7976;52.526;13.326;2024-02-15T09:40:10;12.15;;;4.97;;
15748;SDS011;7976;52.526;13.326;2024-02-15T09:42:40;11.68;;;4.85;;
15748;SDS011;7976;52.526;13.326;2024-02-15T09:45:10;15.93;;;5.45;;
15748;SDS011;7976;52.526;13.326;2024-02-15T09:47:39;14.52;;;5.15;;
15748;SDS011;7976;52.526;13.326;2024-02-15T09:50:08;12.50;;;5.10;;
15748;SDS011;7976;52.526;13.326;2024-02-15T09:52:38;13.57;;;5.28;;
15748;SDS011;7976;52.526;13.326;2024-02-15T09:55:07;12.52;;;4.63;;
15748;SDS011;7976;52.526;13.326;2024-02-15T09:57:38;14.27;;;5.43;;
15748;SDS011;7976;52.526;13.326;2024-02-15T10:00:06;11.88;;;4.97;;
15748;SDS011;7976;52.526;13.326;2024-02-15T10:02:38;13.55;;;5.75;;
15748;SDS011;7976;52.526;13.326;2024-02-15T10:05:12;12.55;;;4.90;;
15748;SDS011;7976;52.526;13.326;2024-02-15T10:07:43;17.70;;;7.47;;
15748;SDS011;7976;52.526;13.326;2024-02-15T10:10:15;14.65;;;6.10;;
15748;SDS011;7976;52.526;13.326;2024-02-15T10:12:45;12.80;;;5.10;;
15748;SDS011;7976;52.526;13.326;2024-02-15T10:15:26;13.10;;;5.13;;
15748;SDS011;7976;52.526;13.326;2024-02-15T10:17:56;11.70;;;4.85;;
15748;SDS011;7976;52.526;13.326;2024-02-15T10:20:28;13.23;;;4.47;;
15748;SDS011;7976;52.526;13.326;2024-02-15T10:23:08;11.75;;;4.95;;
15748;SDS011;7976;52.526;13.326;2024-02-15T10:25:37;11.45;;;4.20;;
15748;SDS011;7976;52.526;13.326;2024-02-15T10:28:06;10.00;;;3.90;;
15748;SDS011;7976;52.526;13.326;2024-02-15T10:30:35;10.05;;;4.05;;
15748;SDS011;7976;52.526;13.326;2024-02-15T10:33:04;10.70;;;3.75;;
15748;SDS011;7976;52.526;13.326;2024-02-15T10:35:35;10.65;;;3.90;;
15748;SDS011;7976;52.526;13.326;2024-02-15T10:38:05;10.60;;;3.67;;
15748;SDS011;7976;52.526;13.326;2024-02-15T10:40:38;9.80;;;3.90;;
15748;SDS011;7976;52.526;13.326;2024-02-15T10:43:09;10.77;;;4.15;;
15748;SDS011;7976;52.526;13.326;2024-02-15T10:45:38;10.77;;;4.53;;
15748;SDS011;7976;52.526;13.326;2024-02-15T10:48:07;9.75;;;3.58;;
15748;SDS011;7976;52.526;13.326;2024-02-15T10:50:36;9.73;;;3.97;;
15748;SDS011;7976;52.526;13.326;2024-02-15T10:53:07;10.80;;;4.10;;
15748;SDS011;7976;52.526;13.326;2024-02-15T10:55:48;12.50;;;4.57;;
15748;SDS011;7976;52.526;13.326;2024-02-15T10:58:40;11.38;;;3.95;;
15748;SDS011;7976;52.526;13.326;2024-02-15T11:01:16;11.38;;;4.13;;
15748;SDS011;7976;52.526;13.326;2024-02-15T11:03:46;10.07;;;4.07;;
15748;SDS011;7976;52.526;13.326;2024-02-15T11:06:20;8.32;;;3.50;;
15748;SDS011;7976;52.526;13.326;2024-02-15T11:08:52;8.15;;;3.25;;
15748;SDS011;7976;52.526;13.326;2024-02-15T11:11:20;11.38;;;3.70;;
15748;SDS011;7976;52.526;13.326;2024-02-15T11:16:54;8.73;;;3.03;;
15748;SDS011;7976;52.526;13.326;2024-02-15T11:19:42;8.90;;;3.08;;
15748;SDS011;7976;52.526;13.326;2024-02-15T11:22:14;8.02;;;2.97;;
15748;SDS011;7976;52.526;13.326;2024-02-15T11:24:51;9.48;;;3.13;;
15748;SDS011;7976;52.526;13.326;2024-02-15T11:27:23;8.05;;;2.55;;
15748;SDS011;7976;52.526;13.326;2024-02-15T11:29:53;8.80;;;3.20;;
15748;SDS011;7976;52.526;13.326;2024-02-15T11:35:14;12.68;;;4.20;;
15748;SDS011;7976;52.526;13.326;2024-02-15T11:43:50;7.70;;;3.00;;
15748;SDS011;7976;52.526;13.326;2024-02-15T11:46:23;9.15;;;3.15;;
15748;SDS011;7976;52.526;13.326;2024-02-15T11:48:55;8.38;;;2.90;;
15748;SDS011;7976;52.526;13.326;2024-02-15T11:51:24;11.02;;;3.33;;
15748;SDS011;7976;52.526;13.326;2024-02-15T11:54:01;9.65;;;3.50;;
15748;SDS011;7976;52.526;13.326;2024-02-15T11:56:51;9.18;;;2.90;;
15748;SDS011;7976;52.526;13.326;2024-02-15T11:59:38;8.40;;;3.15;;
15748;SDS011;7976;52.526;13.326;2024-02-15T12:02:38;10.02;;;2.85;;
15748;SDS011;7976;52.526;13.326;2024-02-15T12:05:22;10.82;;;3.60;;
15748;SDS011;7976;52.526;13.326;2024-02-15T12:08:07;7.10;;;2.80;;
15748;SDS011;7976;52.526;13.326;2024-02-15T12:10:59;7.72;;;2.90;;
15748;SDS011;7976;52.526;13.326;2024-02-15T12:13:49;7.65;;;3.05;;
15748;SDS011;7976;52.526;13.326;2024-02-15T12:16:35;9.80;;;3.30;;
15748;SDS011;7976;52.526;13.326;2024-02-15T12:19:20;9.75;;;3.25;;
15748;SDS011;7976;52.526;13.326;2024-02-15T12:21:48;18.80;;;9.45;;
15748;SDS011;7976;52.526;13.326;2024-02-15T12:24:17;11.00;;;4.30;;
15748;SDS011;7976;52.526;13.326;2024-02-15T12:26:48;12.48;;;4.20;;
15748;SDS011;7976;52.526;13.326;2024-02-15T12:29:17;10.10;;;4.43;;
15748;SDS011;7976;52.526;13.326;2024-02-15T12:31:48;9.68;;;3.88;;
15748;SDS011;7976;52.526;13.326;2024-02-15T12:34:16;11.13;;;3.55;;
15748;SDS011;7976;52.526;13.326;2024-02-15T12:36:46;10.02;;;3.67;;
15748;SDS011;7976;52.526;13.326;2024-02-15T12:39:15;8.82;;;3.33;;
15748;SDS011;7976;52.526;13.326;2024-02-15T12:41:54;8.35;;;2.63;;
15748;SDS011;7976;52.526;13.326;2024-02-15T12:44:21;6.80;;;2.42;;
15748;SDS011;7976;52.526;13.326;2024-02-15T12:46:53;7.70;;;3.03;;
15748;SDS011;7976;52.526;13.326;2024-02-15T12:49:27;8.75;;;2.83;;
15748;SDS011;7976;52.526;13.326;2024-02-15T12:55:07;9.48;;;2.70;;
15748;SDS011;7976;52.526;13.326;2024-02-15T12:57:41;9.15;;;2.92;;
15748;SDS011;7976;52.526;13.326;2024-02-15T13:00:13;8.93;;;2.50;;
15748;SDS011;7976;52.526;13.326;2024-02-15T13:02:45;9.13;;;2.72;;
15748;SDS011;7976;52.526;13.326;2024-02-15T13:05:14;8.52;;;2.80;;
15748;SDS011;7976;52.526;13.326;2024-02-15T13:07:43;9.25;;;2.92;;
15748;SDS011;7976;52.526;13.326;2024-02-15T13:10:11;9.38;;;2.53;;
15748;SDS011;7976;52.526;13.326;2024-02-15T13:12:44;9.00;;;3.08;;
15748;SDS011;7976;52.526;13.326;2024-02-15T13:15:15;10.60;;;2.88;;
15748;SDS011;7976;52.526;13.326;2024-02-15T13:17:46;7.53;;;2.67;;
15748;SDS011;7976;52.526;13.326;2024-02-15T13:20:16;8.68;;;2.80;;
15748;SDS011;7976;52.526;13.326;2024-02-15T13:22:45;9.23;;;2.85;;
15748;SDS011;7976;52.526;13.326;2024-02-15T13:25:13;8.50;;;3.13;;
15748;SDS011;7976;52.526;13.326;2024-02-15T13:27:43;8.93;;;3.08;;
15748;SDS011;7976;52.526;13.326;2024-02-15T13:30:11;7.85;;;2.70;;
15748;SDS011;7976;52.526;13.326;2024-02-15T13:32:48;8.48;;;3.22;;
15748;SDS011;7976;52.526;13.326;2024-02-15T13:35:16;7.88;;;2.47;;
15748;SDS011;7976;52.526;13.326;2024-02-15T13:37:46;8.15;;;3.28;;
15748;SDS011;7976;52.526;13.326;2024-02-15T13:40:13;8.18;;;2.65;;
15748;SDS011;7976;52.526;13.326;2024-02-15T13:42:46;10.82;;;3.03;;
15748;SDS011;7976;52.526;13.326;2024-02-15T13:45:17;10.13;;;3.45;;
15748;SDS011;7976;52.526;13.326;2024-02-15T13:47:47;13.80;;;3.45;;
15748;SDS011;7976;52.526;13.326;2024-02-15T13:50:15;10.82;;;3.28;;
15748;SDS011;7976;52.526;13.326;2024-02-15T13:52:43;10.98;;;3.78;;
15748;SDS011;7976;52.526;13.326;2024-02-15T13:55:12;9.10;;;3.08;;
15748;SDS011;7976;52.526;13.326;2024-02-15T13:57:40;10.60;;;4.43;;
15748;SDS011;7976;52.526;13.326;2024-02-15T14:00:10;6.60;;;2.50;;
15748;SDS011;7976;52.526;13.326;2024-02-15T14:02:46;9.00;;;3.22;;
15748;SDS011;7976;52.526;13.326;2024-02-15T14:05:14;8.00;;;2.53;;
15748;SDS011;7976;52.526;13.326;2024-02-15T14:07:45;8.85;;;2.95;;
15748;SDS011;7976;52.526;13.326;2024-02-15T14:10:17;8.93;;;2.83;;
15748;SDS011;7976;52.526;13.326;2024-02-15T14:12:46;10.38;;;3.00;;
15748;SDS011;7976;52.526;13.326;2024-02-15T14:15:14;9.90;;;3.72;;
15748;SDS011;7976;52.526;13.326;2024-02-15T14:17:42;12.98;;;5.13;;
15748;SDS011;7976;52.526;13.326;2024-02-15T14:20:09;10.00;;;4.15;;
15748;SDS011;7976;52.526;13.326;2024-02-15T14:22:38;12.60;;;4.80;;
15748;SDS011;7976;52.526;13.326;2024-02-15T14:25:06;8.00;;;3.00;;
15748;SDS011;7976;52.526;13.326;2024-02-15T14:27:33;10.38;;;3.35;;
15748;SDS011;7976;52.526;13.326;2024-02-15T14:30:00;9.85;;;3.53;;
15748;SDS011;7976;52.526;13.326;2024-02-15T14:32:46;11.70;;;3.50;;
15748;SDS011;7976;52.526;13.326;2024-02-15T14:35:28;12.13;;;4.28;;
15748;SDS011;7976;52.526;13.326;2024-02-15T14:37:59;11.48;;;4.38;;
15748;SDS011;7976;52.526;13.326;2024-02-15T14:40:30;13.02;;;3.55;;
15748;SDS011;7976;52.526;13.326;2024-02-15T14:42:58;10.45;;;3.83;;
15748;SDS011;7976;52.526;13.326;2024-02-15T14:45:25;10.32;;;3.60;;
15748;SDS011;7976;52.526;13.326;2024-02-15T14:47:53;8.98;;;3.50;;
15748;SDS011;7976;52.526;13.326;2024-02-15T14:50:20;10.52;;;3.67;;
15748;SDS011;7976;52.526;13.326;2024-02-15T14:52:48;9.80;;;3.17;;
15748;SDS011;7976;52.526;13.326;2024-02-15T14:55:17;18.27;;;8.05;;
15748;SDS011;7976;52.526;13.326;2024-02-15T14:57:44;11.20;;;3.33;;
15748;SDS011;7976;52.526;13.326;2024-02-15T15:00:11;9.02;;;3.42;;
15748;SDS011;7976;52.526;13.326;2024-02-15T15:02:42;9.73;;;3.13;;
15748;SDS011;7976;52.526;13.326;2024-02-15T15:05:10;10.75;;;3.38;;
15748;SDS011;7976;52.526;13.326;2024-02-15T15:07:54;9.75;;;3.05;;
15748;SDS011;7976;52.526;13.326;2024-02-15T15:10:39;10.02;;;3.08;;